createdAt,value
2018-10-06T00:00:06.840Z,1007.15
2018-10-06T00:01:06.846Z,1007.14
2018-10-06T00:02:06.863Z,1007.11
2018-10-06T00:03:06.884Z,1007.09
2018-10-06T00:04:06.896Z,1007.10
2018-10-06T00:05:06.915Z,1007.09
2018-10-06T00:06:06.932Z,1007.06
2018-10-06T00:07:06.948Z,1007.07
2018-10-06T00:08:06.966Z,1007.06
2018-10-06T00:09:06.987Z,1007.03
2018-10-06T00:10:07.001Z,1007.09
2018-10-06T00:11:07.014Z,1007.09
2018-10-06T00:12:07.030Z,1007.12
2018-10-06T00:13:07.047Z,1007.11
2018-10-06T00:14:07.068Z,1007.08
2018-10-06T00:15:07.084Z,1007.05
2018-10-06T00:16:07.096Z,1007.01
2018-10-06T00:17:07.111Z,1007.10
2018-10-06T00:18:07.133Z,1007.08
2018-10-06T00:19:07.145Z,1007.09
2018-10-06T00:20:07.162Z,1007.10
2018-10-06T00:21:07.182Z,1007.09
2018-10-06T00:22:07.198Z,1007.08
2018-10-06T00:23:07.220Z,1007.09
2018-10-06T00:24:07.230Z,1007.09
2018-10-06T00:25:07.254Z,1007.09
2018-10-06T00:26:07.262Z,1007.13
2018-10-06T00:27:07.282Z,1007.08
2018-10-06T00:28:07.307Z,1007.10
2018-10-06T00:29:07.314Z,1007.04
2018-10-06T00:30:07.329Z,1007.06
2018-10-06T00:31:07.353Z,1007.08
2018-10-06T00:32:07.362Z,1007.08
2018-10-06T00:33:07.381Z,1007.03
2018-10-06T00:34:07.393Z,1007.08
2018-10-06T00:35:07.413Z,1006.99
2018-10-06T00:36:07.428Z,1006.99
2018-10-06T00:37:07.445Z,1006.99
2018-10-06T00:38:07.463Z,1006.95
2018-10-06T00:39:07.477Z,1006.94
2018-10-06T00:40:07.496Z,1006.97
2018-10-06T00:41:07.511Z,1007.02
2018-10-06T00:42:07.525Z,1007.02
2018-10-06T00:43:07.546Z,1006.98
2018-10-06T00:44:07.563Z,1006.95
2018-10-06T00:45:07.574Z,1006.96
2018-10-06T00:46:07.593Z,1006.97
2018-10-06T00:47:07.666Z,1006.97
2018-10-06T00:48:07.626Z,1006.95
2018-10-06T00:49:07.644Z,1006.94
2018-10-06T00:50:07.662Z,1006.91
2018-10-06T00:51:07.675Z,1006.91
2018-10-06T00:52:07.691Z,1006.90
2018-10-06T00:53:07.707Z,1006.94
2018-10-06T00:54:07.724Z,1006.92
2018-10-06T00:55:07.740Z,1006.88
2018-10-06T00:56:07.766Z,1006.86
2018-10-06T00:57:07.774Z,1006.83
2018-10-06T00:58:07.790Z,1006.83
2018-10-06T00:59:07.805Z,1006.83
2018-10-06T01:00:07.820Z,1006.83
2018-10-06T01:01:07.840Z,1006.77
2018-10-06T01:02:07.857Z,1006.79
2018-10-06T01:03:07.871Z,1006.78
2018-10-06T01:04:07.887Z,1006.75
2018-10-06T01:05:07.906Z,1006.69
2018-10-06T01:06:07.920Z,1006.66
2018-10-06T01:07:07.943Z,1006.64
2018-10-06T01:08:07.954Z,1006.64
2018-10-06T01:09:07.970Z,1006.62
2018-10-06T01:10:07.986Z,1006.60
2018-10-06T01:11:08.001Z,1006.60
2018-10-06T01:12:08.019Z,1006.62
2018-10-06T01:13:08.034Z,1006.61
2018-10-06T01:14:08.051Z,1006.57
2018-10-06T01:15:08.070Z,1006.60
2018-10-06T01:16:08.081Z,1006.56
2018-10-06T01:17:08.105Z,1006.57
2018-10-06T01:18:08.125Z,1006.59
2018-10-06T01:19:08.132Z,1006.59
2018-10-06T01:20:08.151Z,1006.54
2018-10-06T01:21:08.165Z,1006.42
2018-10-06T01:22:08.180Z,1006.46
2018-10-06T01:23:08.208Z,1006.48
2018-10-06T01:24:08.218Z,1006.48
2018-10-06T01:25:08.234Z,1006.49
2018-10-06T01:26:08.246Z,1006.45
2018-10-06T01:27:08.270Z,1006.47
2018-10-06T01:28:08.279Z,1006.43
2018-10-06T01:29:08.294Z,1006.41
2018-10-06T01:30:08.311Z,1006.40
2018-10-06T01:31:08.329Z,1006.39
2018-10-06T01:32:08.344Z,1006.40
2018-10-06T01:33:08.360Z,1006.40
2018-10-06T01:34:08.379Z,1006.38
2018-10-06T01:35:08.397Z,1006.34
2018-10-06T01:36:08.407Z,1006.37
2018-10-06T01:37:08.438Z,1006.37
2018-10-06T01:38:08.464Z,1006.41
2018-10-06T01:39:08.461Z,1006.38
2018-10-06T01:40:08.476Z,1006.40
2018-10-06T01:41:08.497Z,1006.39
2018-10-06T01:42:08.503Z,1006.39
2018-10-06T01:43:08.520Z,1006.32
2018-10-06T01:44:08.543Z,1006.36
2018-10-06T01:45:08.562Z,1006.37
2018-10-06T01:46:08.572Z,1006.37
2018-10-06T01:47:08.588Z,1006.33
2018-10-06T01:48:08.601Z,1006.33
2018-10-06T01:49:08.627Z,1006.32
2018-10-06T01:50:08.635Z,1006.29
2018-10-06T01:51:08.721Z,1006.27
2018-10-06T01:52:08.670Z,1006.30
2018-10-06T01:53:08.685Z,1006.27
2018-10-06T01:54:08.700Z,1006.27
2018-10-06T01:55:08.720Z,1006.25
2018-10-06T01:56:08.731Z,1006.27
2018-10-06T01:57:08.745Z,1006.21
2018-10-06T01:58:08.762Z,1006.22
2018-10-06T01:59:08.780Z,1006.24
2018-10-06T02:00:08.800Z,1006.21
2018-10-06T02:01:08.813Z,1006.17
2018-10-06T02:02:08.887Z,1006.18
2018-10-06T02:03:08.845Z,1006.15
2018-10-06T02:04:08.864Z,1006.17
2018-10-06T02:05:08.880Z,1006.10
2018-10-06T02:06:08.898Z,1006.13
2018-10-06T02:07:08.909Z,1006.13
2018-10-06T02:08:08.926Z,1006.04
2018-10-06T02:09:08.943Z,1006.05
2018-10-06T02:10:08.960Z,1006.01
2018-10-06T02:11:08.983Z,1006.05
2018-10-06T02:12:08.987Z,1006.03
2018-10-06T02:13:09.010Z,1006.00
2018-10-06T02:14:09.027Z,1005.99
2018-10-06T02:15:09.039Z,1005.96
2018-10-06T02:16:09.061Z,1005.96
2018-10-06T02:17:09.069Z,1005.92
2018-10-06T02:18:09.086Z,1005.92
2018-10-06T02:19:09.115Z,1005.88
2018-10-06T02:20:09.120Z,1005.88
2018-10-06T02:21:09.135Z,1005.89
2018-10-06T02:22:09.154Z,1005.81
2018-10-06T02:23:09.167Z,1005.85
2018-10-06T02:24:09.184Z,1005.81
2018-10-06T02:25:09.197Z,1005.83
2018-10-06T02:26:09.215Z,1005.83
2018-10-06T02:27:09.229Z,1005.79
2018-10-06T02:28:09.248Z,1005.79
2018-10-06T02:29:09.262Z,1005.77
2018-10-06T02:30:09.377Z,1005.81
2018-10-06T02:31:09.304Z,1005.81
2018-10-06T02:32:09.317Z,1005.74
2018-10-06T02:33:09.324Z,1005.78
2018-10-06T02:34:09.347Z,1005.77
2018-10-06T02:35:09.365Z,1005.80
2018-10-06T02:36:09.385Z,1005.76
2018-10-06T02:37:09.392Z,1005.80
2018-10-06T02:38:09.405Z,1005.82
2018-10-06T02:39:09.421Z,1005.81
2018-10-06T02:40:09.438Z,1005.80
2018-10-06T02:41:09.451Z,1005.78
2018-10-06T02:42:09.473Z,1005.72
2018-10-06T02:43:09.491Z,1005.76
2018-10-06T02:44:09.501Z,1005.70
2018-10-06T02:45:09.521Z,1005.68
2018-10-06T02:46:09.532Z,1005.65
2018-10-06T02:47:09.551Z,1005.72
2018-10-06T02:48:09.562Z,1005.67
2018-10-06T02:49:09.578Z,1005.70
2018-10-06T02:50:09.599Z,1005.70
2018-10-06T02:51:09.614Z,1005.66
2018-10-06T02:52:09.628Z,1005.62
2018-10-06T02:53:09.647Z,1005.60
2018-10-06T02:54:09.660Z,1005.53
2018-10-06T02:55:09.674Z,1005.62
2018-10-06T02:56:09.689Z,1005.63
2018-10-06T02:57:09.711Z,1005.62
2018-10-06T02:58:09.726Z,1005.56
2018-10-06T02:59:09.738Z,1005.57
2018-10-06T03:00:09.755Z,1005.55
2018-10-06T03:01:09.767Z,1005.54
2018-10-06T03:02:09.790Z,1005.50
2018-10-06T03:03:09.798Z,1005.49
2018-10-06T03:04:09.814Z,1005.50
2018-10-06T03:05:09.833Z,1005.51
2018-10-06T03:06:09.851Z,1005.52
2018-10-06T03:07:09.869Z,1005.52
2018-10-06T03:08:09.878Z,1005.50
2018-10-06T03:38:35.071Z,1005.21
2018-10-06T03:39:35.051Z,1005.19
2018-10-06T03:41:26.961Z,1005.17
2018-10-06T03:42:26.968Z,1005.15
2018-10-06T03:44:18.900Z,1005.16
2018-10-06T03:45:18.884Z,1005.11
2018-10-06T03:47:10.791Z,1005.14
2018-10-06T03:48:10.790Z,1005.15
2018-10-06T03:50:02.719Z,1005.09
2018-10-06T03:51:02.710Z,1005.07
2018-10-06T03:52:54.634Z,1005.10
2018-10-06T03:53:54.636Z,1005.11
2018-10-06T03:55:46.568Z,1005.09
2018-10-06T03:56:46.545Z,1005.05
2018-10-06T03:58:38.494Z,1005.05
2018-10-06T03:59:38.479Z,1005.02
2018-10-06T04:01:30.379Z,1005.00
2018-10-06T04:02:30.392Z,1005.00
2018-10-06T04:04:22.320Z,1004.95
2018-10-06T04:05:22.309Z,1004.92
2018-10-06T04:07:14.213Z,1004.90
2018-10-06T04:08:14.233Z,1004.83
2018-10-06T04:10:06.158Z,1004.85
2018-10-06T04:11:06.143Z,1004.78
2018-10-06T04:12:58.062Z,1004.80
2018-10-06T04:13:58.066Z,1004.80
2018-10-06T04:15:50.004Z,1004.75
2018-10-06T04:16:49.993Z,1004.76
2018-10-06T04:18:41.901Z,1004.74
2018-10-06T04:19:41.908Z,1004.73
2018-10-06T04:21:33.834Z,1004.68
2018-10-06T04:22:33.836Z,1004.71
2018-10-06T04:24:25.760Z,1004.69
2018-10-06T04:25:25.740Z,1004.66
2018-10-06T04:27:17.654Z,1004.74
2018-10-06T04:28:17.663Z,1004.69
2018-10-06T04:30:09.598Z,1004.66
2018-10-06T04:31:09.585Z,1004.64
2018-10-06T04:33:01.507Z,1004.63
2018-10-06T04:34:01.513Z,1004.61
2018-10-06T04:35:53.443Z,1004.56
2018-10-06T04:36:53.432Z,1004.54
2018-10-06T04:38:45.343Z,1004.50
2018-10-06T04:39:45.349Z,1004.54
2018-10-06T04:41:37.294Z,1004.52
2018-10-06T04:42:37.288Z,1004.51
2018-10-06T04:44:29.213Z,1004.51
2018-10-06T04:45:29.200Z,1004.52
2018-10-06T04:47:21.112Z,1004.45
2018-10-06T04:48:21.120Z,1004.43
2018-10-06T04:50:13.062Z,1004.47
2018-10-06T04:51:13.045Z,1004.46
2018-10-06T04:53:04.994Z,1004.46
2018-10-06T04:54:04.968Z,1004.43
2018-10-06T04:55:56.904Z,1004.42
2018-10-06T04:56:56.889Z,1004.41
2018-10-06T04:58:48.810Z,1004.43
2018-10-06T04:59:48.812Z,1004.40
2018-10-06T05:01:40.763Z,1004.33
2018-10-06T05:02:40.737Z,1004.37
2018-10-06T05:04:32.681Z,1004.41
2018-10-06T05:05:32.668Z,1004.40
2018-10-06T05:07:24.578Z,1004.30
2018-10-06T05:08:24.586Z,1004.36
2018-10-06T05:10:16.521Z,1004.36
2018-10-06T05:11:16.524Z,1004.36
2018-10-06T05:13:08.424Z,1004.31
2018-10-06T05:14:08.442Z,1004.37
2018-10-06T05:16:00.368Z,1004.34
2018-10-06T05:17:00.353Z,1004.30
2018-10-06T05:18:52.270Z,1004.32
2018-10-06T05:19:52.276Z,1004.35
2018-10-06T05:21:44.209Z,1004.29
2018-10-06T05:22:44.195Z,1004.30
2018-10-06T05:24:36.146Z,1004.32
2018-10-06T05:25:36.138Z,1004.28
2018-10-06T05:27:28.042Z,1004.29
2018-10-06T05:28:28.048Z,1004.30
2018-10-06T05:30:19.992Z,1004.30
2018-10-06T05:31:19.973Z,1004.28
2018-10-06T05:33:11.888Z,1004.36
2018-10-06T05:34:11.995Z,1004.30
2018-10-06T05:36:04.024Z,1004.29
2018-10-06T05:37:04.010Z,1004.29
2018-10-06T05:38:55.925Z,1004.28
2018-10-06T05:39:55.929Z,1004.27
2018-10-06T05:41:47.882Z,1004.24
2018-10-06T05:42:47.852Z,1004.26
2018-10-06T05:44:39.797Z,1004.25
2018-10-06T05:45:39.767Z,1004.24
2018-10-06T05:47:31.684Z,1004.23
2018-10-06T05:48:31.688Z,1004.20
2018-10-06T05:50:23.638Z,1004.18
2018-10-06T05:51:23.606Z,1004.24
2018-10-06T05:53:15.522Z,1004.23
2018-10-06T05:54:15.527Z,1004.21
2018-10-06T05:56:07.484Z,1004.25
2018-10-06T05:57:07.467Z,1004.21
2018-10-06T05:58:59.435Z,1004.24
2018-10-06T05:59:59.382Z,1004.23
2018-10-06T06:01:51.319Z,1004.19
2018-10-06T06:02:51.305Z,1004.24
2018-10-06T06:04:43.214Z,1004.22
2018-10-06T06:05:43.225Z,1004.25
2018-10-06T06:07:35.172Z,1004.31
2018-10-06T06:08:35.164Z,1004.28
2018-10-06T06:10:27.089Z,1004.31
2018-10-06T06:11:27.082Z,1004.26
2018-10-06T06:13:18.987Z,1004.21
2018-10-06T06:14:19.031Z,1004.25
2018-10-06T06:16:10.925Z,1004.26
2018-10-06T06:17:10.914Z,1004.24
2018-10-06T06:19:02.837Z,1004.21
2018-10-06T06:20:02.841Z,1004.23
2018-10-06T06:21:54.775Z,1004.16
2018-10-06T06:22:54.768Z,1004.16
2018-10-06T06:24:46.692Z,1004.20
2018-10-06T06:25:46.699Z,1004.19
2018-10-06T06:27:38.631Z,1004.22
2018-10-06T06:28:38.613Z,1004.22
2018-10-06T06:30:30.546Z,1004.26
2018-10-06T06:31:30.603Z,1004.21
2018-10-06T06:33:22.451Z,1004.25
2018-10-06T06:34:22.464Z,1004.27
2018-10-06T06:36:14.398Z,1004.31
2018-10-06T06:37:14.386Z,1004.31
2018-10-06T06:39:06.311Z,1004.28
2018-10-06T06:40:06.306Z,1004.31
2018-10-06T06:41:58.247Z,1004.37
2018-10-06T06:42:58.240Z,1004.31
2018-10-06T06:44:50.153Z,1004.25
2018-10-06T06:45:50.170Z,1004.25
2018-10-06T06:47:42.106Z,1004.25
2018-10-06T06:48:42.084Z,1004.28
2018-10-06T06:50:34.011Z,1004.34
2018-10-06T06:51:34.002Z,1004.30
2018-10-06T06:53:25.917Z,1004.33
2018-10-06T06:54:25.928Z,1004.34
2018-10-06T06:56:17.857Z,1004.29
2018-10-06T06:57:17.851Z,1004.23
2018-10-06T06:59:09.779Z,1004.24
2018-10-06T07:00:09.781Z,1004.22
2018-10-06T07:02:01.727Z,1004.22
2018-10-06T07:03:01.721Z,1004.19
2018-10-06T07:04:53.645Z,1004.17
2018-10-06T07:05:53.697Z,1004.19
2018-10-06T07:07:45.598Z,1004.15
2018-10-06T07:08:45.576Z,1004.19
2018-10-06T07:10:38.001Z,1004.12
2018-10-06T07:11:38.004Z,1004.08
2018-10-06T07:13:30.015Z,1004.04
2018-10-06T07:14:30.020Z,1004.11
2018-10-06T07:16:22.067Z,1004.12
2018-10-06T07:17:22.057Z,1004.04
2018-10-06T07:19:14.070Z,1004.03
2018-10-06T07:20:14.086Z,1004.05
2018-10-06T07:22:06.021Z,1004.00
2018-10-06T07:23:06.004Z,1004.00
2018-10-06T07:24:57.928Z,1004.02
2018-10-06T07:25:57.939Z,1004.01
2018-10-06T07:27:49.898Z,1004.05
2018-10-06T07:28:49.880Z,1004.03
2018-10-06T07:30:41.829Z,1004.04
2018-10-06T07:31:41.844Z,1004.02
2018-10-06T07:33:33.804Z,1004.00
2018-10-06T07:34:33.826Z,1004.01
2018-10-06T07:36:25.761Z,1004.04
2018-10-06T07:37:25.764Z,1003.99
2018-10-06T07:39:17.665Z,1004.01
2018-10-06T07:40:17.670Z,1004.00
2018-10-06T07:42:09.630Z,1003.96
2018-10-06T07:43:09.604Z,1004.01
2018-10-06T07:45:01.632Z,1003.98
2018-10-06T07:46:01.538Z,1003.93
2018-10-06T07:47:53.735Z,1004.06
2018-10-06T07:48:53.531Z,1004.04
2018-10-06T07:50:45.491Z,1004.09
2018-10-06T07:51:45.640Z,1004.07
2018-10-06T07:53:37.414Z,1004.07
2018-10-06T07:54:37.395Z,1004.08
2018-10-06T07:56:29.344Z,1004.08
2018-10-06T07:57:29.853Z,1004.01
2018-10-06T07:59:21.266Z,1004.01
2018-10-06T08:00:21.341Z,1003.99
2018-10-06T08:02:14.234Z,1004.01
2018-10-06T08:03:13.193Z,1003.95
2018-10-06T08:05:05.095Z,1003.96
2018-10-06T08:06:05.119Z,1003.94
2018-10-06T08:07:57.182Z,1003.96
2018-10-06T08:08:57.039Z,1004.01
2018-10-06T08:10:48.982Z,1004.01
2018-10-06T08:11:49.009Z,1004.00
2018-10-06T08:13:40.963Z,1003.97
2018-10-06T08:14:40.909Z,1003.93
2018-10-06T08:16:32.925Z,1003.93
2018-10-06T08:17:32.824Z,1003.92
2018-10-06T08:19:24.791Z,1003.93
2018-10-06T08:20:24.752Z,1003.93
2018-10-06T08:22:16.813Z,1003.92
2018-10-06T08:23:16.729Z,1003.92
2018-10-06T08:25:08.602Z,1003.86
2018-10-06T08:26:08.608Z,1003.96
2018-10-06T08:28:00.673Z,1003.86
2018-10-06T08:29:00.528Z,1003.81
2018-10-06T08:30:52.470Z,1003.82
2018-10-06T08:31:52.556Z,1003.83
2018-10-06T08:33:44.540Z,1003.83
2018-10-06T08:34:44.604Z,1003.81
2018-10-06T08:36:36.529Z,1003.76
2018-10-06T08:37:36.615Z,1003.76
2018-10-06T08:39:28.446Z,1003.76
2018-10-06T08:40:28.515Z,1003.81
2018-10-06T08:42:20.439Z,1003.82
2018-10-06T08:43:20.486Z,1003.83
2018-10-06T08:45:12.836Z,1003.81
2018-10-06T08:46:12.864Z,1003.83
2018-10-06T08:48:04.780Z,1003.71
2018-10-06T08:49:04.755Z,1003.76
2018-10-06T08:50:56.725Z,1003.71
2018-10-06T08:51:56.780Z,1003.76
2018-10-06T08:52:56.756Z,1003.65
2018-10-06T08:53:56.749Z,1003.64
2018-10-06T08:54:56.751Z,1003.62
2018-10-06T08:55:56.842Z,1003.61
2018-10-06T08:56:56.796Z,1003.65
2018-10-06T08:57:56.841Z,1003.64
2018-10-06T08:58:56.835Z,1003.67
2018-10-06T08:59:56.884Z,1003.63
2018-10-06T09:00:56.912Z,1003.65
2018-10-06T09:01:56.926Z,1003.67
2018-10-06T09:02:56.909Z,1003.68
2018-10-06T09:03:56.938Z,1003.65
2018-10-06T09:04:57.052Z,1003.61
2018-10-06T09:05:56.988Z,1003.65
2018-10-06T09:06:57.093Z,1003.63
2018-10-06T09:07:57.012Z,1003.65
2018-10-06T09:08:57.029Z,1003.60
2018-10-06T09:09:57.086Z,1003.57
2018-10-06T09:10:57.225Z,1003.64
2018-10-06T09:11:57.130Z,1003.62
2018-10-06T09:12:57.170Z,1003.60
2018-10-06T09:13:57.125Z,1003.60
2018-10-06T09:14:57.164Z,1003.58
2018-10-06T09:15:57.253Z,1003.63
2018-10-06T09:16:57.221Z,1003.59
2018-10-06T09:17:57.414Z,1003.55
2018-10-06T09:18:57.269Z,1003.60
2018-10-06T09:19:57.288Z,1003.54
2018-10-06T09:20:57.279Z,1003.55
2018-10-06T09:21:57.299Z,1003.50
2018-10-06T09:22:57.311Z,1003.55
2018-10-06T09:23:57.325Z,1003.50
2018-10-06T09:24:57.378Z,1003.54
2018-10-06T09:25:57.368Z,1003.52
2018-10-06T09:26:57.467Z,1003.50
2018-10-06T09:27:57.414Z,1003.45
2018-10-06T09:28:57.431Z,1003.55
2018-10-06T09:29:57.522Z,1003.51
2018-10-06T09:30:57.484Z,1003.45
2018-10-06T09:31:57.491Z,1003.52
2018-10-06T09:32:57.509Z,1003.57
2018-10-06T09:33:57.535Z,1003.58
2018-10-06T09:34:57.550Z,1003.58
2018-10-06T09:35:57.580Z,1003.60
2018-10-06T09:36:57.595Z,1003.65
2018-10-06T09:37:57.611Z,1003.62
2018-10-06T09:38:57.634Z,1003.69
2018-10-06T09:39:57.665Z,1003.62
2018-10-06T09:40:57.697Z,1003.62
2018-10-06T09:41:57.768Z,1003.61
2018-10-06T09:42:57.829Z,1003.58
2018-10-06T09:43:57.735Z,1003.61
2018-10-06T09:44:57.762Z,1003.63
2018-10-06T09:45:57.790Z,1003.60
2018-10-06T09:46:57.799Z,1003.57
2018-10-06T09:47:57.885Z,1003.61
2018-10-06T09:48:57.851Z,1003.60
2018-10-06T09:49:57.862Z,1003.62
2018-10-06T09:50:57.883Z,1003.62
2018-10-06T09:51:57.941Z,1003.61
2018-10-06T09:52:57.954Z,1003.60
2018-10-06T09:53:57.951Z,1003.54
2018-10-06T09:54:57.974Z,1003.51
2018-10-06T09:55:57.996Z,1003.54
2018-10-06T09:56:58.017Z,1003.59
2018-10-06T09:57:58.032Z,1003.53
2018-10-06T09:58:58.052Z,1003.54
2018-10-06T09:59:58.071Z,1003.56
2018-10-06T10:00:58.097Z,1003.59
2018-10-06T10:01:58.117Z,1003.54
2018-10-06T10:02:58.133Z,1003.54
2018-10-06T10:03:58.161Z,1003.53
2018-10-06T10:04:58.183Z,1003.50
2018-10-06T10:05:58.235Z,1003.48
2018-10-06T10:06:58.219Z,1003.43
2018-10-06T10:07:58.237Z,1003.44
2018-10-06T10:08:58.274Z,1003.40
2018-10-06T10:09:58.427Z,1003.43
2018-10-06T10:10:58.321Z,1003.41
2018-10-06T10:11:58.333Z,1003.43
2018-10-06T10:12:58.349Z,1003.38
2018-10-06T10:13:58.374Z,1003.34
2018-10-06T10:14:58.389Z,1003.38
2018-10-06T10:15:58.440Z,1003.34
2018-10-06T10:16:58.498Z,1003.35
2018-10-06T10:17:58.514Z,1003.31
2018-10-06T10:18:58.475Z,1003.33
2018-10-06T10:19:58.498Z,1003.35
2018-10-06T10:20:58.516Z,1003.32
2018-10-06T10:21:58.634Z,1003.30
2018-10-06T10:22:58.612Z,1003.32
2018-10-06T10:23:58.765Z,1003.31
2018-10-06T10:24:58.679Z,1003.27
2018-10-06T10:25:58.624Z,1003.29
2018-10-06T10:26:58.645Z,1003.26
2018-10-06T10:27:58.670Z,1003.27
2018-10-06T10:28:58.759Z,1003.28
2018-10-06T10:29:58.713Z,1003.23
2018-10-06T10:30:58.728Z,1003.24
2018-10-06T10:31:58.781Z,1003.24
2018-10-06T10:32:58.788Z,1003.18
2018-10-06T10:33:58.803Z,1003.18
2018-10-06T10:34:58.854Z,1003.13
2018-10-06T10:35:58.851Z,1003.15
2018-10-06T10:36:58.865Z,1003.14
2018-10-06T10:37:58.897Z,1003.08
2018-10-06T10:38:58.916Z,1003.13
2018-10-06T10:39:58.929Z,1003.09
2018-10-06T10:40:58.947Z,1003.11
2018-10-06T10:41:58.968Z,1003.11
2018-10-06T10:42:59.019Z,1003.11
2018-10-06T10:43:59.071Z,1003.09
2018-10-06T10:44:59.054Z,1003.09
2018-10-06T10:45:59.060Z,1003.07
2018-10-06T10:46:59.078Z,1003.09
2018-10-06T10:47:59.105Z,1003.05
2018-10-06T10:48:59.120Z,1003.06
2018-10-06T10:49:59.145Z,1003.03
2018-10-06T10:50:59.170Z,1003.00
2018-10-06T10:51:59.187Z,1003.00
2018-10-06T10:52:59.220Z,1003.01
2018-10-06T10:53:59.242Z,1003.02
2018-10-06T10:54:59.255Z,1002.96
2018-10-06T10:55:59.275Z,1002.98
2018-10-06T10:56:59.308Z,1003.00
2018-10-06T10:57:59.334Z,1002.97
2018-10-06T10:58:59.347Z,1002.96
2018-10-06T10:59:59.517Z,1002.94
2018-10-06T11:00:59.413Z,1002.96
2018-10-06T11:01:59.421Z,1002.92
2018-10-06T11:02:59.434Z,1002.97
2018-10-06T11:03:59.476Z,1002.94
2018-10-06T11:04:59.484Z,1002.95
2018-10-06T11:05:59.494Z,1002.96
2018-10-06T11:06:59.518Z,1002.94
2018-10-06T11:07:59.539Z,1002.88
2018-10-06T11:08:59.572Z,1002.90
2018-10-06T11:09:59.592Z,1002.88
2018-10-06T11:10:59.612Z,1002.85
2018-10-06T11:11:59.633Z,1002.85
2018-10-06T11:12:59.653Z,1002.83
2018-10-06T11:13:59.682Z,1002.86
2018-10-06T11:14:59.699Z,1002.80
2018-10-06T11:15:59.724Z,1002.82
2018-10-06T11:16:59.741Z,1002.82
2018-10-06T11:17:59.770Z,1002.82
2018-10-06T11:18:59.789Z,1002.77
2018-10-06T11:19:59.818Z,1002.74
2018-10-06T11:20:59.836Z,1002.70
2018-10-06T11:21:59.859Z,1002.75
2018-10-06T11:22:59.877Z,1002.66
2018-10-06T11:23:59.905Z,1002.67
2018-10-06T11:25:00.025Z,1002.71
2018-10-06T11:25:59.946Z,1002.64
2018-10-06T11:26:59.971Z,1002.68
2018-10-06T11:27:59.997Z,1002.73
2018-10-06T11:29:00.017Z,1002.74
2018-10-06T11:30:00.039Z,1002.66
2018-10-06T11:31:00.060Z,1002.64
2018-10-06T11:32:00.085Z,1002.62
2018-10-06T11:33:00.106Z,1002.61
2018-10-06T11:34:00.127Z,1002.60
2018-10-06T11:35:00.152Z,1002.60
2018-10-06T11:36:00.180Z,1002.56
2018-10-06T11:37:00.197Z,1002.59
2018-10-06T11:38:00.285Z,1002.53
2018-10-06T11:39:00.240Z,1002.53
2018-10-06T11:40:00.264Z,1002.53
2018-10-06T11:41:00.285Z,1002.55
2018-10-06T11:42:00.313Z,1002.52
2018-10-06T11:43:00.338Z,1002.54
2018-10-06T11:44:00.353Z,1002.49
2018-10-06T11:45:00.385Z,1002.56
2018-10-06T11:46:00.401Z,1002.52
2018-10-06T11:47:00.421Z,1002.47
2018-10-06T11:48:00.444Z,1002.49
2018-10-06T11:49:00.472Z,1002.41
2018-10-06T11:50:00.577Z,1002.41
2018-10-06T11:51:00.517Z,1002.34
2018-10-06T11:52:00.539Z,1002.36
2018-10-06T11:53:00.563Z,1002.30
2018-10-06T11:54:00.593Z,1002.29
2018-10-06T11:55:00.610Z,1002.28
2018-10-06T11:56:00.636Z,1002.22
2018-10-06T11:57:00.653Z,1002.27
2018-10-06T11:58:00.679Z,1002.23
2018-10-06T11:59:00.699Z,1002.17
2018-10-06T12:00:00.806Z,1002.17
2018-10-06T12:01:00.752Z,1002.17
2018-10-06T12:02:00.774Z,1002.18
2018-10-06T12:03:00.797Z,1002.16
2018-10-06T12:04:00.819Z,1002.17
2018-10-06T12:05:00.845Z,1002.15
2018-10-06T12:06:00.865Z,1002.16
2018-10-06T12:07:00.891Z,1002.17
2018-10-06T12:08:00.908Z,1002.17
2018-10-06T12:09:00.931Z,1002.15
2018-10-06T12:10:00.959Z,1002.14
2018-10-06T12:11:00.985Z,1002.16
2018-10-06T12:12:01.007Z,1002.15
2018-10-06T12:13:01.028Z,1002.09
2018-10-06T12:14:01.055Z,1002.11
2018-10-06T12:15:01.081Z,1002.09
2018-10-06T12:16:01.094Z,1002.09
2018-10-06T12:17:01.137Z,1002.12
2018-10-06T12:18:01.145Z,1002.11
2018-10-06T12:19:01.172Z,1002.04
2018-10-06T12:20:01.194Z,1002.05
2018-10-06T12:21:01.221Z,1001.99
2018-10-06T12:22:01.237Z,1002.02
2018-10-06T12:23:01.260Z,1002.01
2018-10-06T12:24:01.288Z,1002.08
2018-10-06T12:25:01.328Z,1002.03
2018-10-06T12:26:01.375Z,1002.03
2018-10-06T12:27:01.362Z,1002.00
2018-10-06T12:28:01.388Z,1001.97
2018-10-06T12:29:01.406Z,1001.96
2018-10-06T12:30:01.434Z,1001.94
2018-10-06T12:31:01.449Z,1001.92
2018-10-06T12:32:01.476Z,1001.94
2018-10-06T12:33:01.497Z,1001.95
2018-10-06T12:34:01.524Z,1001.94
2018-10-06T12:35:01.557Z,1001.92
2018-10-06T12:36:01.571Z,1001.87
2018-10-06T12:37:01.594Z,1001.90
2018-10-06T12:38:01.620Z,1001.82
2018-10-06T12:39:01.651Z,1001.85
2018-10-06T12:40:01.666Z,1001.88
2018-10-06T12:41:01.683Z,1001.79
2018-10-06T12:42:01.713Z,1001.81
2018-10-06T12:43:01.730Z,1001.87
2018-10-06T12:44:01.753Z,1001.85
2018-10-06T12:45:01.783Z,1001.77
2018-10-06T12:46:01.798Z,1001.80
2018-10-06T12:47:01.824Z,1001.79
2018-10-06T12:48:01.848Z,1001.78
2018-10-06T12:49:01.873Z,1001.76
2018-10-06T12:50:01.897Z,1001.81
2018-10-06T12:51:01.922Z,1001.75
2018-10-06T12:52:01.959Z,1001.77
2018-10-06T12:53:01.972Z,1001.77
2018-10-06T12:54:01.992Z,1001.76
2018-10-06T12:55:02.054Z,1001.70
2018-10-06T12:56:02.038Z,1001.68
2018-10-06T12:57:02.066Z,1001.69
2018-10-06T12:58:02.087Z,1001.62
2018-10-06T12:59:02.109Z,1001.69
2018-10-06T13:00:02.162Z,1001.63
2018-10-06T13:01:02.158Z,1001.68
2018-10-06T13:02:02.179Z,1001.68
2018-10-06T13:03:02.204Z,1001.66
2018-10-06T13:04:02.226Z,1001.68
2018-10-06T13:05:02.258Z,1001.66
2018-10-06T13:06:02.299Z,1001.65
2018-10-06T13:07:02.309Z,1001.65
2018-10-06T13:08:02.327Z,1001.60
2018-10-06T13:09:02.347Z,1001.64
2018-10-06T13:10:02.376Z,1001.62
2018-10-06T13:11:02.400Z,1001.65
2018-10-06T13:12:02.512Z,1001.62
2018-10-06T13:13:02.444Z,1001.62
2018-10-06T13:14:02.471Z,1001.64
2018-10-06T13:15:02.494Z,1001.58
2018-10-06T13:16:02.510Z,1001.63
2018-10-06T13:17:02.534Z,1001.63
2018-10-06T13:18:02.562Z,1001.60
2018-10-06T13:19:02.584Z,1001.61
2018-10-06T13:20:02.605Z,1001.61
2018-10-06T13:21:02.640Z,1001.56
2018-10-06T13:22:02.654Z,1001.59
2018-10-06T13:23:02.684Z,1001.57
2018-10-06T13:24:02.703Z,1001.58
2018-10-06T13:25:02.724Z,1001.60
2018-10-06T13:26:02.753Z,1001.57
2018-10-06T13:27:02.783Z,1001.56
2018-10-06T13:28:02.800Z,1001.56
2018-10-06T13:29:02.821Z,1001.51
2018-10-06T13:30:02.850Z,1001.49
2018-10-06T13:31:02.878Z,1001.51
2018-10-06T13:32:03.042Z,1001.50
2018-10-06T13:33:02.926Z,1001.49
2018-10-06T13:34:02.946Z,1001.47
2018-10-06T13:35:02.972Z,1001.44
2018-10-06T13:36:02.993Z,1001.44
2018-10-06T13:37:03.022Z,1001.36
2018-10-06T13:38:03.042Z,1001.36
2018-10-06T13:39:03.069Z,1001.40
2018-10-06T13:40:03.092Z,1001.38
2018-10-06T13:41:03.109Z,1001.36
2018-10-06T13:42:03.138Z,1001.32
2018-10-06T13:43:03.157Z,1001.31
2018-10-06T13:44:03.179Z,1001.30
2018-10-06T13:45:03.215Z,1001.28
2018-10-06T13:46:03.232Z,1001.26
2018-10-06T13:47:03.253Z,1001.31
2018-10-06T13:48:03.276Z,1001.28
2018-10-06T13:49:03.301Z,1001.31
2018-10-06T13:50:03.330Z,1001.33
2018-10-06T13:51:03.359Z,1001.38
2018-10-06T13:52:03.371Z,1001.31
2018-10-06T13:53:03.397Z,1001.29
2018-10-06T13:54:03.422Z,1001.31
2018-10-06T13:55:03.447Z,1001.29
2018-10-06T13:56:03.473Z,1001.30
2018-10-06T13:57:03.492Z,1001.25
2018-10-06T13:58:03.540Z,1001.27
2018-10-06T13:59:03.549Z,1001.25
2018-10-06T14:00:03.570Z,1001.23
2018-10-06T14:01:03.589Z,1001.22
2018-10-06T14:02:03.618Z,1001.22
2018-10-06T14:03:03.675Z,1001.25
2018-10-06T14:04:03.678Z,1001.21
2018-10-06T14:05:03.692Z,1001.15
2018-10-06T14:06:03.714Z,1001.17
2018-10-06T14:07:03.738Z,1001.13
2018-10-06T14:08:03.762Z,1001.16
2018-10-06T14:09:03.790Z,1001.16